createdAt,value
2019-02-09T00:01:53.253Z,99212.70
2019-02-09T00:04:22.019Z,99195.14
2019-02-09T00:06:51.012Z,99189.45
2019-02-09T00:09:19.894Z,99185.69
2019-02-09T00:11:46.856Z,99175.88
2019-02-09T00:14:13.837Z,99168.33
2019-02-09T00:16:41.296Z,99165.32
2019-02-09T00:19:08.163Z,99165.09
2019-02-09T00:21:35.042Z,99156.25
2019-02-09T00:24:01.939Z,99157.41
2019-02-09T00:26:30.761Z,99153.22
2019-02-09T00:28:58.109Z,99159.09
2019-02-09T00:31:25.103Z,99157.00
2019-02-09T00:33:54.127Z,99144.86
2019-02-09T00:36:22.581Z,99142.98
2019-02-09T00:38:49.957Z,99138.98
2019-02-09T00:41:17.283Z,99140.64
2019-02-09T00:43:44.597Z,99145.13
2019-02-09T00:46:11.606Z,99146.31
2019-02-09T00:48:38.576Z,99149.33
2019-02-09T00:51:05.937Z,99153.20
2019-02-09T00:53:33.360Z,99144.38
2019-02-09T00:56:00.334Z,99141.47
2019-02-09T00:58:27.259Z,99133.88
2019-02-09T01:00:54.354Z,99139.23
2019-02-09T01:03:25.212Z,99150.55
2019-02-09T01:05:52.261Z,99146.47
2019-02-09T01:08:20.305Z,99146.89
2019-02-09T01:10:47.703Z,99149.70
2019-02-09T01:13:14.623Z,99143.88
2019-02-09T01:15:41.636Z,99147.18
2019-02-09T01:18:08.652Z,99151.22
2019-02-09T01:20:36.032Z,99139.98
2019-02-09T01:23:04.258Z,99143.73
2019-02-09T01:25:31.636Z,99135.22
2019-02-09T01:27:58.952Z,99123.08
2019-02-09T01:30:26.392Z,99137.69
2019-02-09T01:32:54.558Z,99122.36
2019-02-09T01:35:23.125Z,99122.52
2019-02-09T01:37:50.126Z,99117.26
2019-02-09T01:40:17.437Z,99109.28
2019-02-09T01:42:44.696Z,99118.13
2019-02-09T01:45:11.668Z,99105.38
2019-02-09T01:47:39.056Z,99098.23
2019-02-09T01:50:08.916Z,99095.77
2019-02-09T01:52:35.921Z,99098.70
2019-02-09T01:55:02.998Z,99082.41
2019-02-09T01:57:38.607Z,99085.43
2019-02-09T02:00:10.714Z,99086.56
2019-02-09T02:02:36.487Z,99089.39
2019-02-09T02:05:05.374Z,99085.61
2019-02-09T02:07:35.935Z,99078.23
2019-02-09T02:10:03.204Z,99082.47
2019-02-09T02:12:30.748Z,99075.31
2019-02-09T02:14:57.741Z,99068.38
2019-02-09T02:17:24.864Z,99065.61
2019-02-09T02:19:53.810Z,99050.73
2019-02-09T02:22:23.751Z,99044.18
2019-02-09T02:24:52.441Z,99037.77
2019-02-09T02:27:21.745Z,99024.87
2019-02-09T02:29:58.322Z,99028.70
2019-02-09T02:32:22.158Z,99009.44
2019-02-09T02:34:53.448Z,99007.72
2019-02-09T02:37:20.840Z,99014.84
2019-02-09T02:39:47.839Z,99005.56
2019-02-09T02:42:14.803Z,98995.56
2019-02-09T02:44:42.090Z,99000.95
2019-02-09T02:47:09.104Z,98994.72
2019-02-09T02:49:36.088Z,98986.77
2019-02-09T02:52:03.113Z,98980.45
2019-02-09T02:54:30.085Z,98976.31
2019-02-09T02:56:58.724Z,98966.95
2019-02-09T02:59:26.086Z,98964.47
2019-02-09T03:01:53.081Z,98959.13
2019-02-09T03:04:20.445Z,98958.27
2019-02-09T03:06:47.907Z,98951.59
2019-02-09T03:09:15.013Z,98946.55
2019-02-09T03:11:42.015Z,98952.41
2019-02-09T03:14:09.016Z,98957.70
2019-02-09T03:16:36.297Z,98949.72
2019-02-09T03:19:03.320Z,98964.16
2019-02-09T03:21:30.575Z,98962.05
2019-02-09T03:23:57.535Z,98966.23
2019-02-09T03:26:24.566Z,98959.95
2019-02-09T03:28:51.624Z,98949.48
2019-02-09T03:31:18.615Z,98956.18
2019-02-09T03:33:45.635Z,98959.95
2019-02-09T03:36:12.633Z,98959.13
2019-02-09T03:38:42.721Z,98962.70
2019-02-09T03:41:09.698Z,98970.83
2019-02-09T03:43:39.495Z,98977.13
2019-02-09T03:46:08.459Z,98975.36
2019-02-09T03:48:35.092Z,98974.42
2019-02-09T03:51:03.305Z,98975.97
2019-02-09T03:53:33.469Z,98962.57
2019-02-09T03:56:00.479Z,98965.25
2019-02-09T03:58:29.213Z,98959.95
2019-02-09T04:00:56.133Z,98964.72
2019-02-09T04:03:23.802Z,98961.94
2019-02-09T04:05:50.767Z,98963.73
2019-02-09T04:08:17.826Z,98957.25
2019-02-09T04:10:45.175Z,98955.00
2019-02-09T04:13:13.560Z,98947.54
2019-02-09T04:15:42.190Z,98935.17
2019-02-09T04:18:09.626Z,98931.90
2019-02-09T04:20:36.568Z,98931.80
2019-02-09T04:23:03.660Z,98927.03
2019-02-09T04:25:31.869Z,98923.81
2019-02-09T04:27:58.792Z,98932.03
2019-02-09T04:30:25.733Z,98912.27
2019-02-09T04:32:53.822Z,98915.57
2019-02-09T04:35:20.857Z,98913.17
2019-02-09T04:37:47.863Z,98910.80
2019-02-09T04:40:15.171Z,98905.97
2019-02-09T04:42:44.280Z,98895.41
2019-02-09T04:45:11.624Z,98880.30
2019-02-09T04:47:38.580Z,98885.58
2019-02-09T04:50:05.588Z,98887.82
2019-02-09T04:52:34.245Z,98876.75
2019-02-09T04:55:01.282Z,98868.55
2019-02-09T04:57:28.634Z,98869.30
2019-02-09T04:59:55.726Z,98862.75
2019-02-09T05:02:23.132Z,98852.27
2019-02-09T05:04:53.121Z,98845.86
2019-02-09T05:07:21.769Z,98844.80
2019-02-09T05:09:49.187Z,98840.59
2019-02-09T05:12:16.192Z,98828.73
2019-02-09T05:14:43.325Z,98845.50
2019-02-09T05:17:10.386Z,98839.02
2019-02-09T05:19:40.371Z,98838.23
2019-02-09T05:22:07.681Z,98848.20
2019-02-09T05:24:34.671Z,98840.75
2019-02-09T05:27:02.091Z,98832.14
2019-02-09T05:29:29.151Z,98823.55
2019-02-09T05:31:56.097Z,98827.33
2019-02-09T05:34:23.159Z,98826.20
2019-02-09T05:36:50.198Z,98833.58
2019-02-09T05:39:19.173Z,98834.66
2019-02-09T05:41:45.810Z,98845.57
2019-02-09T05:44:12.815Z,98841.69
2019-02-09T05:46:39.814Z,98840.92
2019-02-09T05:49:06.856Z,98834.67
2019-02-09T05:51:33.798Z,98842.05
2019-02-09T05:54:00.731Z,98846.75
2019-02-09T05:56:27.642Z,98843.23
2019-02-09T05:58:54.600Z,98849.23
2019-02-09T06:01:22.020Z,98837.97
2019-02-09T06:03:49.012Z,98837.28
2019-02-09T06:06:15.934Z,98836.49
2019-02-09T06:08:42.821Z,98833.78
2019-02-09T06:11:09.821Z,98825.92
2019-02-09T06:13:37.096Z,98831.98
2019-02-09T06:16:04.046Z,98830.05
2019-02-09T06:18:31.425Z,98828.64
2019-02-09T06:20:58.351Z,98831.88
2019-02-09T06:23:25.246Z,98831.48
2019-02-09T06:25:52.187Z,98836.23
2019-02-09T06:28:19.174Z,98843.48
2019-02-09T06:30:46.528Z,98839.19
2019-02-09T06:33:13.871Z,98837.64
2019-02-09T06:35:40.843Z,98834.46
2019-02-09T06:38:07.822Z,98854.36
2019-02-09T06:40:35.122Z,98860.58
2019-02-09T06:43:03.803Z,98858.21
2019-02-09T06:45:31.937Z,98859.08
2019-02-09T06:47:59.173Z,98852.09
2019-02-09T06:50:26.179Z,98835.66
2019-02-09T06:52:53.433Z,98837.74
2019-02-09T06:55:20.409Z,98842.85
2019-02-09T06:57:47.392Z,98836.02
2019-02-09T07:00:14.286Z,98841.72
2019-02-09T07:02:41.165Z,98855.92
2019-02-09T07:05:10.210Z,98882.17
2019-02-09T07:07:37.464Z,98871.21
2019-02-09T07:10:04.707Z,98864.48
2019-02-09T07:12:31.956Z,98876.30
2019-02-09T07:14:59.220Z,98866.94
2019-02-09T07:17:26.115Z,98855.72
2019-02-09T07:19:55.942Z,98877.53
2019-02-09T07:22:22.932Z,98884.50
2019-02-09T07:24:50.207Z,98886.39
2019-02-09T07:27:17.461Z,98882.54
2019-02-09T07:29:44.423Z,98882.19
2019-02-09T07:32:11.748Z,98887.54
2019-02-09T07:34:38.709Z,98881.74
2019-02-09T07:37:05.681Z,98890.21
2019-02-09T07:39:32.972Z,98882.19
2019-02-09T07:42:00.148Z,98884.27
2019-02-09T07:44:27.094Z,98886.41
2019-02-09T07:46:54.052Z,98883.97
2019-02-09T07:49:20.982Z,98872.55
2019-02-09T07:51:48.197Z,98883.63
2019-02-09T07:54:15.061Z,98881.10
2019-02-09T07:56:42.327Z,98885.96
2019-02-09T07:59:09.683Z,98877.36
2019-02-09T08:01:36.652Z,98858.81
2019-02-09T08:04:03.622Z,98865.72
2019-02-09T08:06:30.898Z,98863.19
2019-02-09T08:08:57.791Z,98867.31
2019-02-09T08:11:25.114Z,98891.05
2019-02-09T08:13:53.817Z,98893.75
2019-02-09T08:16:23.117Z,98895.44
2019-02-09T08:18:50.044Z,98903.03
2019-02-09T08:21:16.988Z,98894.98
2019-02-09T08:23:43.905Z,98898.92
2019-02-09T08:26:10.856Z,98891.92
2019-02-09T08:28:38.184Z,98899.88
2019-02-09T08:31:05.121Z,98903.89
2019-02-09T08:33:32.328Z,98906.82
2019-02-09T08:35:59.898Z,98900.98
2019-02-09T08:38:26.857Z,98894.78
2019-02-09T08:40:53.841Z,98913.70
2019-02-09T08:43:21.291Z,98905.88
2019-02-09T08:45:48.724Z,98910.55
2019-02-09T08:48:15.843Z,98916.41
2019-02-09T08:50:42.871Z,98909.46
2019-02-09T08:53:09.826Z,98905.41
2019-02-09T08:55:36.801Z,98912.70
2019-02-09T08:58:03.739Z,98915.25
2019-02-09T09:00:30.660Z,98913.52
2019-02-09T09:02:57.611Z,98926.25
2019-02-09T09:05:24.701Z,98909.09
2019-02-09T09:07:51.935Z,98919.70
2019-02-09T09:10:22.743Z,98918.81
2019-02-09T09:12:50.055Z,98909.67
2019-02-09T09:15:17.369Z,98910.03
2019-02-09T09:17:44.397Z,98915.74
2019-02-09T09:20:11.353Z,98908.64
2019-02-09T09:22:38.403Z,98906.27
2019-02-09T09:25:08.217Z,98920.45
2019-02-09T09:27:35.678Z,98931.08
2019-02-09T09:30:04.580Z,98931.59
2019-02-09T09:32:33.298Z,98925.70
2019-02-09T09:35:00.327Z,98911.28
2019-02-09T09:37:27.296Z,98906.48
2019-02-09T09:39:54.247Z,98907.70
2019-02-09T09:42:21.346Z,98906.00
2019-02-09T09:44:48.392Z,98914.22
2019-02-09T09:47:21.502Z,98926.34
2019-02-09T09:49:51.590Z,98931.41
2019-02-09T09:52:18.628Z,98936.44
2019-02-09T09:54:45.637Z,98954.66
2019-02-09T09:57:12.992Z,98945.31
2019-02-09T09:59:40.058Z,98953.66
2019-02-09T10:02:07.107Z,98952.78
2019-02-09T10:04:54.596Z,98957.92
2019-02-09T10:07:26.183Z,98964.42
2019-02-09T10:09:53.982Z,98967.61
2019-02-09T10:12:21.155Z,98978.63
2019-02-09T10:14:48.159Z,98990.54
2019-02-09T10:17:17.427Z,98977.53
2019-02-09T10:19:44.671Z,98986.73
2019-02-09T10:22:11.919Z,98987.95
2019-02-09T10:24:38.911Z,98982.13
2019-02-09T10:27:05.942Z,98967.65
2019-02-09T10:29:33.297Z,98982.59
2019-02-09T10:32:00.646Z,98983.03
2019-02-09T10:34:27.585Z,98988.17
2019-02-09T10:36:54.547Z,98988.79
2019-02-09T10:39:21.628Z,98988.69
2019-02-09T10:41:49.160Z,98993.42
2019-02-09T10:44:16.526Z,99014.63
2019-02-09T10:46:43.944Z,99008.94
2019-02-09T10:49:13.603Z,99018.17
2019-02-09T10:51:40.501Z,99013.13
2019-02-09T10:54:07.426Z,99018.33
2019-02-09T10:56:34.414Z,99004.08
2019-02-09T10:59:01.904Z,99026.48
2019-02-09T11:01:28.873Z,99006.12
2019-02-09T11:04:00.078Z,99015.42
2019-02-09T11:06:27.102Z,99021.23
2019-02-09T11:08:54.132Z,99023.95
2019-02-09T11:11:25.302Z,99035.84
2019-02-09T11:13:53.460Z,99029.19
2019-02-09T11:16:20.674Z,99032.64
2019-02-09T11:18:47.725Z,99027.33
2019-02-09T11:21:15.056Z,99030.02
2019-02-09T11:23:42.382Z,99035.38
2019-02-09T11:26:10.776Z,99037.79
2019-02-09T11:28:38.108Z,99047.31
2019-02-09T11:31:10.993Z,99034.80
2019-02-09T11:33:40.199Z,99041.25
2019-02-09T11:36:13.450Z,99038.86
2019-02-09T11:38:42.807Z,99046.13
2019-02-09T11:41:09.935Z,99043.53
2019-02-09T11:43:36.918Z,99039.23
2019-02-09T11:46:04.055Z,99047.97
2019-02-09T11:48:33.098Z,99061.30
2019-02-09T11:51:00.110Z,99050.24
2019-02-09T11:53:30.022Z,99049.11
2019-02-09T11:55:57.306Z,99055.34
2019-02-09T11:58:24.663Z,99053.27
2019-02-09T12:00:51.555Z,99039.64
2019-02-09T12:03:18.556Z,99051.19
2019-02-09T12:05:45.508Z,99055.08
2019-02-09T12:08:12.510Z,99058.70
2019-02-09T12:10:39.739Z,99070.92
2019-02-09T12:13:06.983Z,99070.05
2019-02-09T12:15:34.370Z,99066.50
2019-02-09T12:18:01.354Z,99065.03
2019-02-09T12:20:28.713Z,99069.09
2019-02-09T12:22:57.778Z,99059.42
2019-02-09T12:25:24.692Z,99057.63
2019-02-09T12:27:52.008Z,99068.58
2019-02-09T12:30:19.271Z,99066.95
2019-02-09T12:32:46.647Z,99055.77
2019-02-09T12:35:13.656Z,99061.22
2019-02-09T12:37:43.081Z,99057.83
2019-02-09T12:40:10.004Z,99048.87
2019-02-09T12:42:37.042Z,99049.94
2019-02-09T12:45:04.052Z,99051.10
2019-02-09T12:47:30.977Z,99052.27
2019-02-09T12:49:57.967Z,99046.28
2019-02-09T12:52:25.249Z,99053.63
2019-02-09T12:54:52.138Z,99047.97
2019-02-09T12:57:19.110Z,99048.50
2019-02-09T12:59:46.059Z,99051.80
2019-02-09T13:02:13.177Z,99056.70
2019-02-09T13:04:40.072Z,99044.47
2019-02-09T13:07:07.028Z,99052.97
2019-02-09T13:09:34.029Z,99041.53
2019-02-09T13:12:01.235Z,99054.63
2019-02-09T13:14:28.694Z,99048.30
2019-02-09T13:16:55.886Z,99050.31
2019-02-09T13:19:22.776Z,99055.51
2019-02-09T13:21:50.001Z,99059.77
2019-02-09T13:24:17.202Z,99050.14
2019-02-09T13:26:44.402Z,99051.38
2019-02-09T13:29:13.026Z,99065.44
2019-02-09T13:31:40.278Z,99059.02
2019-02-09T13:34:07.425Z,99073.69
2019-02-09T13:36:35.810Z,99069.95
2019-02-09T13:39:02.748Z,99069.99
2019-02-09T13:41:31.642Z,99079.02
2019-02-09T13:43:58.528Z,99083.75
2019-02-09T13:46:25.518Z,99080.97
2019-02-09T13:48:52.793Z,99086.73
2019-02-09T13:51:19.771Z,99085.25
2019-02-09T13:53:46.974Z,99093.50
2019-02-09T13:56:13.873Z,99096.25
2019-02-09T13:58:40.808Z,99088.22
2019-02-09T14:01:07.702Z,99086.41
2019-02-09T14:03:34.639Z,99082.81
2019-02-09T14:06:08.075Z,99082.10
2019-02-09T14:08:30.337Z,99098.12
2019-02-09T14:10:57.553Z,99081.97
2019-02-09T14:13:24.514Z,99088.81
2019-02-09T14:15:51.498Z,99091.17
2019-02-09T14:18:18.418Z,99089.33
2019-02-09T14:20:45.323Z,99098.69
2019-02-09T14:23:12.597Z,99096.31
2019-02-09T14:25:39.850Z,99099.76
2019-02-09T14:28:06.812Z,99089.06
2019-02-09T14:30:33.758Z,99091.73
2019-02-09T14:33:01.006Z,99098.07
2019-02-09T14:35:27.964Z,99102.81
2019-02-09T14:37:54.865Z,99104.80
2019-02-09T14:40:22.149Z,99116.60
2019-02-09T14:42:49.101Z,99119.57
2019-02-09T14:45:16.340Z,99109.32
2019-02-09T14:47:43.304Z,99124.99
2019-02-09T14:50:11.523Z,99126.91
2019-02-09T14:52:40.622Z,99131.38
2019-02-09T14:55:07.909Z,99133.66
2019-02-09T14:57:34.882Z,99128.22
2019-02-09T15:00:01.821Z,99130.30
2019-02-09T15:02:30.636Z,99135.28
2019-02-09T15:04:57.517Z,99132.44
2019-02-09T15:07:24.433Z,99125.38
2019-02-09T15:09:51.416Z,99134.78
2019-02-09T15:12:18.675Z,99130.19
2019-02-09T15:14:45.544Z,99127.50
2019-02-09T15:17:12.517Z,99131.92
2019-02-09T15:19:39.423Z,99126.85
2019-02-09T15:22:06.656Z,99127.17
2019-02-09T15:24:33.898Z,99130.53
2019-02-09T15:27:01.162Z,99127.83
2019-02-09T15:29:28.123Z,99126.78
2019-02-09T15:31:55.008Z,99123.17
2019-02-09T15:34:23.137Z,99131.40
2019-02-09T15:36:50.705Z,99147.91
2019-02-09T15:39:17.591Z,99158.45
2019-02-09T15:41:48.835Z,99141.17
2019-02-09T15:44:16.022Z,99145.05
2019-02-09T15:46:42.898Z,99152.62
2019-02-09T15:49:09.789Z,99156.60
2019-02-09T15:51:36.836Z,99160.71
2019-02-09T15:54:04.121Z,99165.00
2019-02-09T15:56:31.482Z,99158.41
2019-02-09T15:58:58.385Z,99162.73
2019-02-09T16:01:28.558Z,99162.78
2019-02-09T16:03:56.949Z,99163.54
2019-02-09T16:06:24.436Z,99161.14
2019-02-09T16:08:51.741Z,99161.12
2019-02-09T16:11:19.024Z,99161.17
2019-02-09T16:13:46.370Z,99158.27
2019-02-09T16:16:13.430Z,99165.55
2019-02-09T16:18:40.406Z,99166.13
2019-02-09T16:21:07.349Z,99174.72
2019-02-09T16:23:34.311Z,99172.78
2019-02-09T16:26:01.577Z,99172.97
2019-02-09T16:28:28.883Z,99173.02
2019-02-09T16:30:55.853Z,99164.99
2019-02-09T16:33:22.829Z,99172.83
2019-02-09T16:35:49.917Z,99174.05
2019-02-09T16:38:16.864Z,99172.48
2019-02-09T16:40:43.815Z,99171.95
2019-02-09T16:43:10.789Z,99169.38
2019-02-09T16:45:37.774Z,99171.95
2019-02-09T16:48:05.036Z,99174.55
2019-02-09T16:50:32.285Z,99188.70
2019-02-09T16:52:59.222Z,99190.41
2019-02-09T16:55:29.204Z,99183.68
2019-02-09T16:57:56.627Z,99188.22
2019-02-09T17:00:23.959Z,99191.89
2019-02-09T17:02:50.821Z,99188.01
2019-02-09T17:05:17.721Z,99182.02
2019-02-09T17:07:44.851Z,99197.85
2019-02-09T17:10:11.760Z,99195.97
2019-02-09T17:12:38.752Z,99198.95
2019-02-09T17:15:05.839Z,99201.02
2019-02-09T17:17:33.101Z,99204.59
2019-02-09T17:20:00.450Z,99191.41
2019-02-09T17:22:27.453Z,99206.45
2019-02-09T17:24:54.741Z,99204.66
2019-02-09T17:27:21.682Z,99200.52
2019-02-09T17:29:48.634Z,99204.27
2019-02-09T17:32:15.613Z,99206.60
2019-02-09T17:34:42.998Z,99207.34
2019-02-09T17:37:10.034Z,99199.83
2019-02-09T17:39:40.746Z,99207.72
2019-02-09T17:42:07.969Z,99203.77
2019-02-09T17:44:34.947Z,99212.95
2019-02-09T17:47:02.005Z,99212.61
2019-02-09T17:49:29.160Z,99223.11
2019-02-09T17:51:56.802Z,99225.02
2019-02-09T17:54:26.814Z,99223.75
2019-02-09T17:56:53.878Z,99220.42
2019-02-09T17:59:20.863Z,99220.05
2019-02-09T18:01:48.228Z,99216.76
2019-02-09T18:04:29.141Z,99215.27
2019-02-09T18:09:29.816Z,99220.98
2019-02-09T18:11:57.237Z,99218.30
2019-02-09T18:14:26.362Z,99218.17
2019-02-09T18:16:54.998Z,99208.58
2019-02-09T18:19:23.706Z,99219.34
2019-02-09T18:21:50.738Z,99219.59
2019-02-09T18:24:26.801Z,99208.41
2019-02-09T18:26:54.162Z,99227.64
2019-02-09T18:29:21.254Z,99214.97
2019-02-09T18:31:48.406Z,99208.60
2019-02-09T18:34:22.719Z,99222.08
2019-02-09T18:36:51.446Z,99224.22
2019-02-09T18:39:19.999Z,99215.01
2019-02-09T18:41:49.086Z,99222.19
2019-02-09T18:44:16.163Z,99225.45
2019-02-09T18:46:43.175Z,99228.85
2019-02-09T18:49:10.281Z,99223.14
2019-02-09T18:51:37.231Z,99222.46
2019-02-09T18:54:04.370Z,99233.00
2019-02-09T18:56:31.522Z,99223.25
2019-02-09T18:58:59.018Z,99219.11
2019-02-09T19:01:26.324Z,99224.94
2019-02-09T19:03:53.714Z,99222.67
2019-02-09T19:06:20.967Z,99228.53
2019-02-09T19:08:48.223Z,99233.97
2019-02-09T19:11:15.295Z,99220.76
2019-02-09T19:13:42.649Z,99227.27
2019-02-09T19:16:09.617Z,99221.17
2019-02-09T19:18:37.007Z,99230.94
2019-02-09T19:21:03.887Z,99239.11
2019-02-09T19:23:31.122Z,99237.13
2019-02-09T19:25:58.170Z,99234.29
2019-02-09T19:28:25.536Z,99240.75
2019-02-09T19:30:52.762Z,99244.01
2019-02-09T19:33:20.045Z,99243.69
2019-02-09T19:35:47.375Z,99239.14
2019-02-09T19:38:14.329Z,99241.41
2019-02-09T19:40:42.274Z,99244.16
2019-02-09T19:43:11.701Z,99234.45
2019-02-09T19:45:39.096Z,99243.47
2019-02-09T19:48:06.215Z,99247.44
2019-02-09T19:50:33.126Z,99247.56
2019-02-09T19:53:05.446Z,99250.05
2019-02-09T19:55:32.140Z,99246.39
2019-02-09T19:57:59.148Z,99231.89
2019-02-09T20:00:26.154Z,99252.53
2019-02-09T20:02:53.232Z,99261.20
2019-02-09T20:05:20.224Z,99258.39
2019-02-09T20:07:47.643Z,99250.44
2019-02-09T20:10:16.234Z,99250.58
2019-02-09T20:12:43.546Z,99255.73
2019-02-09T20:15:10.567Z,99240.53
2019-02-09T20:17:37.640Z,99251.31
2019-02-09T20:20:04.650Z,99263.14
2019-02-09T20:22:32.186Z,99257.83
2019-02-09T20:24:59.590Z,99264.38
2019-02-09T20:27:29.098Z,99255.12
2019-02-09T20:29:56.367Z,99253.40
2019-02-09T20:32:23.666Z,99261.37
2019-02-09T20:34:50.902Z,99254.52
2019-02-09T20:37:18.739Z,99264.67
2019-02-09T20:39:46.189Z,99261.18
2019-02-09T20:42:13.580Z,99260.13
2019-02-09T20:44:40.604Z,99264.51
2019-02-09T20:47:10.024Z,99268.58
2019-02-09T20:49:40.031Z,99276.91
2019-02-09T20:52:07.084Z,99267.95
2019-02-09T20:54:34.101Z,99283.53
2019-02-09T20:57:01.564Z,99276.77
2019-02-09T20:59:28.848Z,99278.61
2019-02-09T21:01:55.831Z,99273.19
2019-02-09T21:04:24.521Z,99296.43
2019-02-09T21:06:51.442Z,99293.58
2019-02-09T21:09:18.428Z,99288.23
2019-02-09T21:11:45.423Z,99285.02
2019-02-09T21:14:12.412Z,99301.81
2019-02-09T21:16:41.356Z,99298.90
2019-02-09T21:19:09.983Z,99292.33
2019-02-09T21:21:38.534Z,99301.00
2019-02-09T21:24:10.670Z,99306.70
2019-02-09T21:26:36.382Z,99312.00
2019-02-09T21:29:03.423Z,99304.42
2019-02-09T21:31:32.414Z,99310.98
2019-02-09T21:33:59.439Z,99323.91
2019-02-09T21:36:26.727Z,99325.66
2019-02-09T21:41:44.478Z,99333.34
2019-02-09T21:44:11.639Z,99333.98
2019-02-09T21:46:38.701Z,99332.16
2019-02-09T21:49:08.552Z,99334.19
2019-02-09T21:51:36.939Z,99336.53
2019-02-09T21:54:05.030Z,99337.03
2019-02-09T21:56:35.013Z,99326.58
2019-02-09T21:59:02.117Z,99332.77
2019-02-09T22:01:29.060Z,99329.67
2019-02-09T22:03:57.699Z,99337.10
2019-02-09T22:06:24.903Z,99337.63
2019-02-09T22:08:52.158Z,99339.72
2019-02-09T22:11:21.588Z,99335.00
2019-02-09T22:13:51.580Z,99338.50
2019-02-09T22:16:18.838Z,99335.04
2019-02-09T22:18:45.866Z,99336.75
2019-02-09T22:21:13.010Z,99334.26
2019-02-09T22:23:40.120Z,99331.02
2019-02-09T22:26:13.027Z,99337.33
2019-02-09T22:28:35.578Z,99337.94
2019-02-09T22:31:02.514Z,99330.72
2019-02-09T22:33:29.924Z,99332.88
2019-02-09T22:36:00.302Z,99348.09
2019-02-09T22:38:27.721Z,99345.55
2019-02-09T22:40:54.922Z,99345.98
2019-02-09T22:43:21.848Z,99346.77
2019-02-09T22:45:48.802Z,99341.73
2019-02-09T22:48:15.688Z,99342.23
2019-02-09T22:50:42.726Z,99342.69
2019-02-09T22:53:09.670Z,99340.27
2019-02-09T22:55:36.914Z,99342.34
2019-02-09T22:58:03.905Z,99341.44
2019-02-09T23:00:31.187Z,99341.24
2019-02-09T23:02:59.363Z,99350.02
2019-02-09T23:05:26.477Z,99347.12
2019-02-09T23:07:53.406Z,99347.16
2019-02-09T23:10:20.642Z,99349.41
2019-02-09T23:12:48.830Z,99347.63
2019-02-09T23:15:16.007Z,99351.41
2019-02-09T23:17:43.342Z,99349.45
2019-02-09T23:20:10.553Z,99346.42
2019-02-09T23:22:37.730Z,99352.73
2019-02-09T23:25:04.729Z,99355.34
2019-02-09T23:27:32.029Z,99367.86
2019-02-09T23:29:59.376Z,99364.97
2019-02-09T23:32:26.627Z,99365.43
2019-02-09T23:34:53.547Z,99367.86
2019-02-09T23:37:20.449Z,99367.81
2019-02-09T23:39:47.776Z,99361.19
2019-02-09T23:42:14.737Z,99359.02
2019-02-09T23:44:41.686Z,99357.01
2019-02-09T23:47:08.568Z,99357.34
2019-02-09T23:49:35.528Z,99351.85
2019-02-09T23:52:02.889Z,99356.27
2019-02-09T23:54:29.864Z,99359.53
2019-02-09T23:56:57.115Z,99359.10
2019-02-09T23:59:24.349Z,99357.15
